createdAt,value
2023-05-18T00:02:21.860Z,99219.88
2023-05-18T00:04:49.515Z,99212.59
2023-05-18T00:07:16.520Z,99214.03
2023-05-18T00:09:43.725Z,99218.09
2023-05-18T00:12:11.103Z,99219.69
2023-05-18T00:14:38.406Z,99215.88
2023-05-18T00:17:05.568Z,99215.50
2023-05-18T00:19:33.456Z,99208.31
2023-05-18T00:22:02.400Z,99210.63
2023-05-18T00:24:29.655Z,99207.88
2023-05-18T00:26:56.797Z,99207.16
2023-05-18T00:29:24.057Z,99206.84
2023-05-18T00:31:51.347Z,99203.47
2023-05-18T00:34:18.892Z,99209.25
2023-05-18T00:36:45.888Z,99217.69
2023-05-18T00:39:13.219Z,99212.72
2023-05-18T00:41:40.676Z,99212.34
2023-05-18T00:44:07.967Z,99215.28
2023-05-18T00:46:34.973Z,99215.94
2023-05-18T00:49:02.940Z,99221.56
2023-05-18T00:51:32.474Z,99219.00
2023-05-18T00:54:00.505Z,99219.09
2023-05-18T00:56:28.472Z,99219.00
2023-05-18T00:58:57.385Z,99222.41
2023-05-18T01:01:37.124Z,99223.09
2023-05-18T01:04:04.895Z,99231.63
2023-05-18T01:06:36.212Z,99222.66
2023-05-18T01:09:07.132Z,99232.75
2023-05-18T01:11:40.691Z,99228.97
2023-05-18T01:14:16.491Z,99232.25
2023-05-18T01:16:53.822Z,99228.47
2023-05-18T01:19:46.273Z,99236.41
2023-05-18T01:22:23.270Z,99227.91
2023-05-18T01:24:53.517Z,99229.09
2023-05-18T01:27:24.859Z,99229.41
2023-05-18T01:29:52.700Z,99233.72
2023-05-18T01:32:20.721Z,99236.66
2023-05-18T01:34:48.501Z,99226.34
2023-05-18T01:37:15.585Z,99230.13
2023-05-18T01:39:42.995Z,99230.50
2023-05-18T01:42:14.387Z,99227.09
2023-05-18T01:44:58.814Z,99223.31
2023-05-18T01:47:28.975Z,99227.31
2023-05-18T01:50:02.274Z,99241.72
2023-05-18T01:52:47.627Z,99242.84
2023-05-18T01:55:15.864Z,99239.94
2023-05-18T01:57:45.181Z,99246.88
2023-05-18T02:00:13.224Z,99242.88
2023-05-18T02:02:40.265Z,99247.72
2023-05-18T02:05:12.368Z,99241.06
2023-05-18T02:07:40.333Z,99241.81
2023-05-18T02:10:08.127Z,99247.38
2023-05-18T02:12:35.332Z,99253.22
2023-05-18T02:15:05.738Z,99252.22
2023-05-18T02:17:39.583Z,99245.28
2023-05-18T02:20:07.867Z,99243.09
2023-05-18T02:22:35.682Z,99253.34
2023-05-18T02:25:05.179Z,99248.16
2023-05-18T02:27:33.492Z,99258.91
2023-05-18T02:30:00.765Z,99262.84
2023-05-18T02:32:28.112Z,99261.78
2023-05-18T02:34:55.358Z,99264.66
2023-05-18T02:37:23.330Z,99259.25
2023-05-18T02:39:50.944Z,99259.50
2023-05-18T02:42:17.865Z,99258.50
2023-05-18T02:44:45.118Z,99264.28
2023-05-18T02:47:12.156Z,99258.59
2023-05-18T02:49:39.374Z,99269.75
2023-05-18T02:52:06.811Z,99253.50
2023-05-18T02:54:34.384Z,99260.25
2023-05-18T02:57:01.395Z,99259.16
2023-05-18T02:59:28.754Z,99261.28
2023-05-18T03:01:56.077Z,99266.34
2023-05-18T03:04:26.227Z,99265.03
2023-05-18T03:06:53.263Z,99268.69
2023-05-18T03:09:21.024Z,99272.31
2023-05-18T03:11:47.985Z,99271.34
2023-05-18T03:14:15.236Z,99264.41
2023-05-18T03:16:42.311Z,99275.75
2023-05-18T03:19:09.622Z,99271.94
2023-05-18T03:21:36.817Z,99273.69
2023-05-18T03:24:04.544Z,99261.50
2023-05-18T03:26:31.682Z,99272.00
2023-05-18T03:28:59.453Z,99275.56
2023-05-18T03:31:26.997Z,99278.88
2023-05-18T03:33:54.623Z,99284.59
2023-05-18T03:36:22.813Z,99286.81
2023-05-18T03:38:50.235Z,99292.25
2023-05-18T03:41:17.425Z,99284.84
2023-05-18T03:43:44.796Z,99294.66
2023-05-18T03:46:11.925Z,99295.72
2023-05-18T03:48:39.288Z,99287.78
2023-05-18T03:51:06.738Z,99291.63
2023-05-18T03:53:36.385Z,99295.78
2023-05-18T03:56:03.556Z,99300.84
2023-05-18T03:58:30.997Z,99308.13
2023-05-18T04:00:58.105Z,99310.50
2023-05-18T04:03:27.366Z,99310.97
2023-05-18T04:05:55.985Z,99313.03
2023-05-18T04:08:25.744Z,99323.84
2023-05-18T04:10:52.975Z,99318.03
2023-05-18T04:13:20.267Z,99321.41
2023-05-18T04:15:47.833Z,99318.41
2023-05-18T04:18:15.123Z,99321.66
2023-05-18T04:20:42.789Z,99327.28
2023-05-18T04:23:10.447Z,99322.63
2023-05-18T04:25:39.561Z,99331.75
2023-05-18T04:28:07.054Z,99338.19
2023-05-18T04:30:35.630Z,99330.31
2023-05-18T04:33:04.846Z,99345.41
2023-05-18T04:35:32.602Z,99349.59
2023-05-18T04:38:00.219Z,99347.38
2023-05-18T04:40:27.273Z,99340.63
2023-05-18T04:42:54.705Z,99344.59
2023-05-18T04:45:22.276Z,99353.63
2023-05-18T04:47:54.215Z,99351.50
2023-05-18T04:50:25.293Z,99344.03
2023-05-18T04:52:53.927Z,99354.59
2023-05-18T04:55:26.596Z,99347.13
2023-05-18T04:57:57.116Z,99358.59
2023-05-18T05:00:26.442Z,99364.78
2023-05-18T05:02:55.138Z,99363.78
2023-05-18T05:05:23.429Z,99363.41
2023-05-18T05:07:51.831Z,99364.59
2023-05-18T05:10:19.980Z,99367.09
2023-05-18T05:12:49.370Z,99371.44
2023-05-18T05:15:17.601Z,99370.22
2023-05-18T05:17:47.390Z,99370.59
2023-05-18T05:20:14.490Z,99368.34
2023-05-18T05:22:42.215Z,99370.22
2023-05-18T05:25:09.620Z,99377.16
2023-05-18T05:27:37.190Z,99372.72
2023-05-18T05:30:05.089Z,99375.53
2023-05-18T05:32:32.474Z,99386.22
2023-05-18T05:34:59.529Z,99379.63
2023-05-18T05:37:26.904Z,99380.84
2023-05-18T05:39:54.225Z,99387.78
2023-05-18T05:42:21.702Z,99381.72
2023-05-18T05:44:48.991Z,99384.72
2023-05-18T05:47:16.563Z,99391.59
2023-05-18T05:49:43.664Z,99389.31
2023-05-18T05:52:11.156Z,99390.31
2023-05-18T05:54:38.212Z,99388.31
2023-05-18T05:57:05.795Z,99390.16
2023-05-18T05:59:33.503Z,99395.38
2023-05-18T06:02:00.892Z,99392.03
2023-05-18T06:04:28.098Z,99396.53
2023-05-18T06:06:56.005Z,99397.56
2023-05-18T06:09:23.280Z,99402.72
2023-05-18T06:11:50.590Z,99398.66
2023-05-18T06:14:17.979Z,99400.66
2023-05-18T06:16:46.017Z,99399.81
2023-05-18T06:19:13.146Z,99401.13
2023-05-18T06:21:40.675Z,99400.88
2023-05-18T06:24:07.841Z,99406.31
2023-05-18T06:26:35.140Z,99409.66
2023-05-18T06:29:03.107Z,99407.97
2023-05-18T06:31:30.721Z,99408.53
2023-05-18T06:33:58.037Z,99403.44
2023-05-18T06:36:25.811Z,99405.41
2023-05-18T06:38:52.990Z,99410.19
2023-05-18T06:41:20.767Z,99404.81
2023-05-18T06:43:48.141Z,99415.53
2023-05-18T06:46:23.186Z,99415.59
2023-05-18T06:48:51.480Z,99407.28
2023-05-18T06:51:19.421Z,99408.81
2023-05-18T06:53:46.618Z,99409.38
2023-05-18T06:56:15.276Z,99411.25
2023-05-18T06:58:42.743Z,99408.78
2023-05-18T07:01:11.057Z,99406.34
2023-05-18T07:03:38.413Z,99399.69
2023-05-18T07:06:06.408Z,99400.25
2023-05-18T07:08:34.093Z,99399.09
2023-05-18T07:11:02.702Z,99398.16
2023-05-18T07:13:30.477Z,99394.81
2023-05-18T07:15:58.314Z,99398.22
2023-05-18T07:18:25.428Z,99396.06
2023-05-18T07:20:53.084Z,99408.31
2023-05-18T07:23:20.351Z,99406.22
2023-05-18T07:25:47.745Z,99413.47
2023-05-18T07:28:15.003Z,99412.69
2023-05-18T07:30:42.374Z,99423.41
2023-05-18T07:33:09.464Z,99422.97
2023-05-18T07:35:37.038Z,99425.78
2023-05-18T07:38:04.298Z,99422.06
2023-05-18T07:40:31.640Z,99422.22
2023-05-18T07:42:58.950Z,99419.66
2023-05-18T07:45:26.954Z,99424.47
2023-05-18T07:47:54.638Z,99420.28
2023-05-18T07:50:22.237Z,99419.69
2023-05-18T07:52:49.222Z,99428.13
2023-05-18T07:55:16.697Z,99423.41
2023-05-18T07:57:43.946Z,99420.28
2023-05-18T08:00:12.390Z,99420.38
2023-05-18T08:02:40.021Z,99421.94
2023-05-18T08:05:08.625Z,99420.50
2023-05-18T08:07:35.674Z,99419.56
2023-05-18T08:10:04.119Z,99416.19
2023-05-18T08:12:31.257Z,99419.03
2023-05-18T08:14:58.911Z,99412.25
2023-05-18T08:17:26.245Z,99410.97
2023-05-18T08:19:55.423Z,99416.69
2023-05-18T08:22:22.451Z,99410.59
2023-05-18T08:24:49.969Z,99406.00
2023-05-18T08:27:17.281Z,99410.13
2023-05-18T08:29:44.628Z,99399.50
2023-05-18T08:32:12.194Z,99405.59
2023-05-18T08:34:39.796Z,99408.28
2023-05-18T08:37:07.836Z,99412.91
2023-05-18T08:39:35.141Z,99405.53
2023-05-18T08:42:09.533Z,99407.28
2023-05-18T08:45:11.184Z,99416.09
2023-05-18T08:47:38.498Z,99414.00
2023-05-18T08:50:06.785Z,99408.88
2023-05-18T08:52:37.829Z,99409.47
2023-05-18T08:55:11.821Z,99406.03
2023-05-18T08:57:40.244Z,99411.75
2023-05-18T09:00:08.171Z,99400.78
2023-05-18T09:02:36.590Z,99409.09
2023-05-18T09:05:04.364Z,99414.09
2023-05-18T09:07:32.378Z,99417.66
2023-05-18T09:10:00.987Z,99425.75
2023-05-18T09:12:28.752Z,99425.88
2023-05-18T09:14:56.393Z,99413.84
2023-05-18T09:17:24.158Z,99415.00
2023-05-18T09:19:51.645Z,99406.09
2023-05-18T09:22:19.049Z,99404.44
2023-05-18T09:24:46.661Z,99417.84
2023-05-18T09:27:13.702Z,99428.91
2023-05-18T09:29:54.995Z,99422.63
2023-05-18T09:32:22.927Z,99419.00
2023-05-18T09:34:50.474Z,99422.44
2023-05-18T09:37:18.361Z,99426.56
2023-05-18T09:39:46.831Z,99414.31
2023-05-18T09:42:14.043Z,99419.50
2023-05-18T09:44:41.447Z,99422.16
2023-05-18T09:47:12.308Z,99412.56
2023-05-18T09:49:40.863Z,99417.03
2023-05-18T09:52:09.448Z,99413.88
2023-05-18T09:54:37.809Z,99420.44
2023-05-18T09:59:36.907Z,99419.81
2023-05-18T10:02:12.292Z,99419.75
2023-05-18T10:04:42.238Z,99419.91
2023-05-18T10:07:13.316Z,99425.34
2023-05-18T10:09:45.227Z,99414.75
2023-05-18T10:12:17.366Z,99422.84
2023-05-18T10:14:46.361Z,99421.25
2023-05-18T10:17:16.246Z,99430.81
2023-05-18T10:19:45.274Z,99422.22
2023-05-18T10:22:14.733Z,99429.47
2023-05-18T10:24:43.641Z,99435.31
2023-05-18T10:27:11.258Z,99432.69
2023-05-18T10:29:38.955Z,99427.00
2023-05-18T10:32:07.868Z,99432.66
2023-05-18T10:34:37.299Z,99432.31
2023-05-18T10:37:05.825Z,99431.44
2023-05-18T10:39:36.524Z,99424.72
2023-05-18T10:42:05.358Z,99432.53
2023-05-18T10:44:32.848Z,99430.91
2023-05-18T10:47:00.323Z,99444.03
2023-05-18T10:49:28.566Z,99434.19
2023-05-18T10:51:56.518Z,99440.56
2023-05-18T10:54:24.407Z,99441.47
2023-05-18T10:56:54.976Z,99446.13
2023-05-18T10:59:25.737Z,99446.75
2023-05-18T11:01:54.170Z,99451.44
2023-05-18T11:04:35.439Z,99451.13
2023-05-18T11:07:02.618Z,99455.09
2023-05-18T11:09:30.673Z,99458.00
2023-05-18T11:11:58.627Z,99454.50
2023-05-18T11:14:33.012Z,99451.50
2023-05-18T11:17:24.133Z,99448.13
2023-05-18T11:20:12.169Z,99449.09
2023-05-18T11:23:02.156Z,99450.38
2023-05-18T11:25:39.388Z,99459.16
2023-05-18T11:28:08.903Z,99460.56
2023-05-18T11:30:36.692Z,99462.78
2023-05-18T11:33:26.134Z,99462.69
2023-05-18T11:36:13.815Z,99457.47
2023-05-18T11:38:52.695Z,99459.75
2023-05-18T11:41:36.485Z,99463.84
2023-05-18T11:44:10.190Z,99463.91
2023-05-18T11:46:41.237Z,99474.81
2023-05-18T11:49:09.254Z,99474.81
2023-05-18T11:51:58.795Z,99484.41
2023-05-18T11:54:26.865Z,99478.16
2023-05-18T11:56:54.996Z,99484.16
2023-05-18T11:59:38.302Z,99475.28
2023-05-18T12:02:06.520Z,99488.16
2023-05-18T12:04:34.584Z,99482.47
2023-05-18T12:07:05.302Z,99488.47
2023-05-18T12:09:32.783Z,99480.88
2023-05-18T12:12:02.789Z,99495.22
2023-05-18T12:14:31.934Z,99505.16
2023-05-18T12:17:00.337Z,99506.25
2023-05-18T12:19:27.780Z,99506.41
2023-05-18T12:21:57.231Z,99498.66
2023-05-18T12:24:25.684Z,99497.44
2023-05-18T12:26:53.304Z,99505.13
2023-05-18T12:29:22.000Z,99500.38
2023-05-18T12:31:49.829Z,99515.16
2023-05-18T12:34:16.881Z,99494.63
2023-05-18T12:36:54.951Z,99505.22
2023-05-18T12:39:22.486Z,99498.31
2023-05-18T12:41:51.084Z,99493.88
2023-05-18T12:44:18.546Z,99488.25
2023-05-18T12:46:46.061Z,99489.97
2023-05-18T12:49:13.222Z,99486.09
2023-05-18T12:51:41.066Z,99486.59
2023-05-18T12:54:08.820Z,99485.59
2023-05-18T12:56:53.391Z,99488.59
2023-05-18T12:59:21.252Z,99487.63
2023-05-18T13:01:49.674Z,99486.69
2023-05-18T13:04:17.375Z,99489.09
2023-05-18T13:06:44.966Z,99484.41
2023-05-18T13:09:13.114Z,99481.56
2023-05-18T13:11:43.288Z,99477.38
2023-05-18T13:14:13.026Z,99464.94
2023-05-18T13:16:45.758Z,99470.09
2023-05-18T13:19:17.232Z,99470.16
2023-05-18T13:21:45.636Z,99461.59
2023-05-18T13:24:13.121Z,99465.44
2023-05-18T13:26:41.308Z,99463.75
2023-05-18T13:29:08.839Z,99463.88
2023-05-18T13:31:36.633Z,99463.84
2023-05-18T13:34:04.095Z,99453.13
2023-05-18T13:36:34.101Z,99452.69
2023-05-18T13:39:01.837Z,99450.75
2023-05-18T13:41:29.353Z,99449.06
2023-05-18T13:43:56.653Z,99453.69
2023-05-18T13:46:25.139Z,99455.13
2023-05-18T13:48:52.201Z,99453.19
2023-05-18T13:51:19.635Z,99454.13
2023-05-18T13:53:46.926Z,99456.06
2023-05-18T13:56:14.594Z,99443.00
2023-05-18T13:58:42.126Z,99451.53
2023-05-18T14:01:13.445Z,99452.28
2023-05-18T14:03:42.023Z,99452.13
2023-05-18T14:06:09.574Z,99447.00
2023-05-18T14:08:37.313Z,99446.03
2023-05-18T14:11:05.903Z,99455.81
2023-05-18T14:13:33.317Z,99447.81
2023-05-18T14:16:01.680Z,99446.75
2023-05-18T14:18:29.262Z,99459.22
2023-05-18T14:21:00.770Z,99447.91
2023-05-18T14:23:28.861Z,99442.28
2023-05-18T14:25:56.176Z,99443.63
2023-05-18T14:28:23.393Z,99445.00
2023-05-18T14:30:51.339Z,99445.63
2023-05-18T14:33:18.639Z,99449.59
2023-05-18T14:35:46.287Z,99450.00
2023-05-18T14:38:13.769Z,99450.25
2023-05-18T14:40:41.460Z,99457.03
2023-05-18T14:43:08.698Z,99446.28
2023-05-18T14:45:36.379Z,99449.72
2023-05-18T14:48:05.144Z,99448.28
2023-05-18T14:50:33.784Z,99459.31
2023-05-18T14:53:02.339Z,99463.34
2023-05-18T14:55:29.670Z,99454.25
2023-05-18T14:57:57.882Z,99462.16
2023-05-18T15:00:25.543Z,99463.97
2023-05-18T15:02:52.617Z,99467.63
2023-05-18T15:05:20.165Z,99467.03
2023-05-18T15:07:47.576Z,99469.78
2023-05-18T15:10:15.291Z,99471.28
2023-05-18T15:12:42.285Z,99478.41
2023-05-18T15:15:10.110Z,99471.78
2023-05-18T15:17:37.262Z,99469.84
2023-05-18T15:20:05.039Z,99474.81
2023-05-18T15:22:35.747Z,99469.16
2023-05-18T15:25:05.507Z,99477.09
2023-05-18T15:27:32.758Z,99484.94
2023-05-18T15:30:00.358Z,99478.84
2023-05-18T15:32:29.830Z,99496.84
2023-05-18T15:34:57.370Z,99487.84
2023-05-18T15:37:24.741Z,99484.34
2023-05-18T15:39:52.470Z,99499.78
2023-05-18T15:42:20.063Z,99492.13
2023-05-18T15:44:47.832Z,99493.66
2023-05-18T15:47:15.190Z,99493.84
2023-05-18T15:49:42.553Z,99495.81
2023-05-18T15:52:09.839Z,99496.41
2023-05-18T15:54:37.677Z,99504.31
2023-05-18T15:57:05.056Z,99510.91
2023-05-18T15:59:32.766Z,99508.69
2023-05-18T16:01:59.756Z,99502.94
2023-05-18T16:04:27.036Z,99501.16
2023-05-18T16:06:54.032Z,99498.19
2023-05-18T16:09:21.624Z,99496.75
2023-05-18T16:11:48.578Z,99490.78
2023-05-18T16:14:16.013Z,99492.34
2023-05-18T16:16:43.557Z,99498.38
2023-05-18T16:19:10.951Z,99496.09
2023-05-18T16:21:39.566Z,99491.19
2023-05-18T16:24:07.495Z,99482.75
2023-05-18T16:26:34.821Z,99496.44
2023-05-18T16:29:04.154Z,99496.88
2023-05-18T16:31:31.530Z,99496.97
2023-05-18T16:33:58.942Z,99501.78
2023-05-18T16:36:26.464Z,99494.06
2023-05-18T16:38:54.224Z,99496.44
2023-05-18T16:41:22.064Z,99496.53
2023-05-18T16:43:49.483Z,99501.41
2023-05-18T16:46:17.560Z,99495.59
2023-05-18T16:48:44.951Z,99500.31
2023-05-18T16:51:12.463Z,99506.53
2023-05-18T16:53:39.734Z,99514.00
2023-05-18T16:56:07.267Z,99514.19
2023-05-18T16:58:34.983Z,99514.50
2023-05-18T17:01:03.043Z,99515.91
2023-05-18T17:03:34.693Z,99515.91
2023-05-18T17:06:02.118Z,99517.56
2023-05-18T17:08:29.927Z,99521.16
2023-05-18T17:10:57.841Z,99519.28
2023-05-18T17:13:25.181Z,99523.41
2023-05-18T17:15:52.427Z,99518.34
2023-05-18T17:18:20.105Z,99513.84
2023-05-18T17:20:47.143Z,99514.69
2023-05-18T17:23:18.846Z,99521.16
2023-05-18T17:25:46.473Z,99516.63
2023-05-18T17:28:16.575Z,99518.91
2023-05-18T17:30:43.548Z,99513.09
2023-05-18T17:33:11.164Z,99511.56
2023-05-18T17:35:38.356Z,99506.16
2023-05-18T17:38:05.849Z,99496.13
2023-05-18T17:40:33.440Z,99501.28
2023-05-18T17:43:01.557Z,99512.91
2023-05-18T17:45:29.614Z,99502.41
2023-05-18T17:47:58.869Z,99506.72
2023-05-18T17:50:26.135Z,99509.31
2023-05-18T17:52:54.521Z,99506.91
2023-05-18T17:55:21.800Z,99504.34
2023-05-18T17:57:49.310Z,99510.66
2023-05-18T18:00:17.729Z,99509.25
2023-05-18T18:02:45.429Z,99516.44
2023-05-18T18:05:13.225Z,99513.66
2023-05-18T18:07:40.884Z,99511.66
2023-05-18T18:10:08.485Z,99506.69
2023-05-18T18:12:35.900Z,99499.78
2023-05-18T18:15:03.101Z,99499.19
2023-05-18T18:17:30.795Z,99509.63
2023-05-18T18:19:58.835Z,99510.66
2023-05-18T18:22:26.401Z,99514.38
2023-05-18T18:24:53.615Z,99505.56
2023-05-18T18:27:20.938Z,99509.69
2023-05-18T18:29:49.319Z,99502.00
2023-05-18T18:32:16.967Z,99509.91
2023-05-18T18:34:44.289Z,99511.56
2023-05-18T18:37:11.983Z,99509.91
2023-05-18T18:39:39.162Z,99510.19
2023-05-18T18:42:06.680Z,99511.09
2023-05-18T18:44:34.593Z,99505.56
2023-05-18T18:47:02.330Z,99505.91
2023-05-18T18:49:29.535Z,99504.75
2023-05-18T18:51:58.987Z,99501.50
2023-05-18T18:54:27.241Z,99510.16
2023-05-18T18:56:54.691Z,99508.66
2023-05-18T18:59:21.738Z,99511.69
2023-05-18T19:01:49.920Z,99512.91
2023-05-18T19:04:18.058Z,99518.91
2023-05-18T19:06:47.021Z,99518.25
2023-05-18T19:09:14.054Z,99525.00
2023-05-18T19:11:41.358Z,99526.88
2023-05-18T19:14:08.432Z,99520.31
2023-05-18T19:16:35.917Z,99523.41
2023-05-18T19:19:08.886Z,99525.38
2023-05-18T19:21:36.704Z,99527.81
2023-05-18T19:24:05.095Z,99529.03
2023-05-18T19:26:32.697Z,99521.34
2023-05-18T19:28:59.727Z,99529.22
2023-05-18T19:31:27.609Z,99522.66
2023-05-18T19:33:54.593Z,99521.53
2023-05-18T19:36:22.115Z,99521.72
2023-05-18T19:38:52.651Z,99522.47
2023-05-18T19:41:21.705Z,99522.38
2023-05-18T19:43:50.167Z,99524.34
2023-05-18T19:46:17.589Z,99519.28
2023-05-18T19:48:44.752Z,99518.81
2023-05-18T19:51:12.093Z,99520.03
2023-05-18T19:53:39.135Z,99527.25
2023-05-18T19:56:06.666Z,99524.16
2023-05-18T19:58:33.628Z,99525.56
2023-05-18T20:01:00.987Z,99522.44
2023-05-18T20:03:28.548Z,99522.47
2023-05-18T20:05:56.418Z,99528.84
2023-05-18T20:08:23.431Z,99530.16
2023-05-18T20:10:50.663Z,99530.34
2023-05-18T20:13:17.725Z,99530.25
2023-05-18T20:15:44.979Z,99532.13
2023-05-18T20:18:11.999Z,99528.66
2023-05-18T20:20:39.728Z,99529.47
2023-05-18T20:23:07.764Z,99526.72
2023-05-18T20:25:35.422Z,99528.72
2023-05-18T20:28:07.137Z,99539.88
2023-05-18T20:30:34.779Z,99539.59
2023-05-18T20:33:04.354Z,99541.41
2023-05-18T20:35:32.555Z,99542.09
2023-05-18T20:38:00.429Z,99543.84
2023-05-18T20:40:30.781Z,99546.94
2023-05-18T20:43:00.789Z,99542.16
2023-05-18T20:45:31.474Z,99545.56
2023-05-18T20:48:00.235Z,99542.75
2023-05-18T20:50:28.017Z,99537.47
2023-05-18T20:52:54.978Z,99536.94
2023-05-18T20:55:22.315Z,99538.59
2023-05-18T20:57:49.307Z,99530.81
2023-05-18T21:00:17.593Z,99526.88
2023-05-18T21:02:45.982Z,99531.19
2023-05-18T21:05:14.335Z,99541.03
2023-05-18T21:07:41.298Z,99544.59
2023-05-18T21:10:09.880Z,99553.22
2023-05-18T21:12:37.623Z,99554.34
2023-05-18T21:15:05.601Z,99555.19
2023-05-18T21:17:32.832Z,99547.78
2023-05-18T21:20:00.683Z,99547.34
2023-05-18T21:22:28.184Z,99542.94
2023-05-18T21:24:55.828Z,99543.50
2023-05-18T21:27:22.846Z,99544.25
2023-05-18T21:29:50.184Z,99542.91
2023-05-18T21:32:17.291Z,99539.72
2023-05-18T21:34:45.125Z,99551.63
2023-05-18T21:37:12.137Z,99549.31
2023-05-18T21:39:42.156Z,99549.50
2023-05-18T21:42:09.324Z,99545.09
2023-05-18T21:44:36.807Z,99543.69
2023-05-18T21:47:04.449Z,99542.53
2023-05-18T21:49:32.351Z,99548.16
2023-05-18T21:51:59.774Z,99541.34
2023-05-18T21:54:31.208Z,99548.16
2023-05-18T21:56:59.952Z,99544.69
2023-05-18T21:59:27.290Z,99542.91
2023-05-18T22:01:54.362Z,99552.97
2023-05-18T22:04:22.212Z,99545.81
2023-05-18T22:06:49.686Z,99543.78
2023-05-18T22:09:17.169Z,99552.47
2023-05-18T22:11:44.474Z,99550.72
2023-05-18T22:14:11.770Z,99548.09
2023-05-18T22:16:38.949Z,99551.94
2023-05-18T22:19:06.580Z,99550.78
2023-05-18T22:21:33.577Z,99552.56
2023-05-18T22:24:00.954Z,99558.31
2023-05-18T22:26:28.463Z,99551.81
2023-05-18T22:28:55.759Z,99558.13
2023-05-18T22:31:22.727Z,99548.38
2023-05-18T22:33:53.198Z,99552.47
2023-05-18T22:36:21.966Z,99545.66
2023-05-18T22:38:49.912Z,99547.78
2023-05-18T22:41:17.356Z,99551.19
2023-05-18T22:43:45.256Z,99542.66
2023-05-18T22:46:12.164Z,99536.91
2023-05-18T22:48:39.705Z,99540.19
2023-05-18T22:51:07.190Z,99540.56
2023-05-18T22:53:34.487Z,99543.47
2023-05-18T22:56:01.461Z,99540.38
2023-05-18T22:58:29.009Z,99541.72
2023-05-18T23:00:56.176Z,99541.97
2023-05-18T23:03:24.269Z,99540.09
2023-05-18T23:05:51.297Z,99544.31
2023-05-18T23:08:18.541Z,99534.50
2023-05-18T23:10:45.871Z,99540.84
2023-05-18T23:13:16.314Z,99540.56
2023-05-18T23:15:43.266Z,99531.47
2023-05-18T23:18:12.709Z,99530.72
2023-05-18T23:20:39.641Z,99531.09
2023-05-18T23:23:07.019Z,99526.03
2023-05-18T23:25:34.053Z,99516.56
2023-05-18T23:28:01.421Z,99526.88
2023-05-18T23:30:29.067Z,99526.78
2023-05-18T23:32:56.929Z,99529.69
2023-05-18T23:35:24.288Z,99524.69
2023-05-18T23:37:54.881Z,99532.31
2023-05-18T23:40:22.148Z,99539.91
2023-05-18T23:42:49.658Z,99530.16
2023-05-18T23:45:16.922Z,99540.09
2023-05-18T23:47:44.799Z,99534.69
2023-05-18T23:50:12.471Z,99535.78
2023-05-18T23:52:41.511Z,99527.53
2023-05-18T23:55:10.820Z,99528.28
2023-05-18T23:57:38.265Z,99528.38
